sensor_id;sensor_type;location;lat;lon;timestamp;P1;durP1;ratioP1;P2;durP2;ratioP2
12519;SDS011;6325;49.540;8.364;2023-08-21T00:01:02;3.50;;;3.30;;
12519;SDS011;6325;49.540;8.364;2023-08-21T00:03:29;3.50;;;3.30;;
12519;SDS011;6325;49.540;8.364;2023-08-21T00:05:56;3.30;;;3.10;;
12519;SDS011;6325;49.540;8.364;2023-08-21T00:08:23;3.30;;;3.10;;
12519;SDS011;6325;49.540;8.364;2023-08-21T00:10:50;3.50;;;3.20;;
12519;SDS011;6325;49.540;8.364;2023-08-21T00:13:17;3.53;;;3.28;;
12519;SDS011;6325;49.540;8.364;2023-08-21T00:15:45;3.60;;;3.37;;
12519;SDS011;6325;49.540;8.364;2023-08-21T00:18:13;3.35;;;3.15;;
12519;SDS011;6325;49.540;8.364;2023-08-21T00:20:40;3.40;;;3.20;;
12519;SDS011;6325;49.540;8.364;2023-08-21T00:23:08;3.40;;;3.20;;
12519;SDS011;6325;49.540;8.364;2023-08-21T00:25:35;3.50;;;3.30;;
12519;SDS011;6325;49.540;8.364;2023-08-21T00:28:02;3.60;;;3.30;;
12519;SDS011;6325;49.540;8.364;2023-08-21T00:30:30;3.60;;;3.38;;
12519;SDS011;6325;49.540;8.364;2023-08-21T00:32:57;3.50;;;3.30;;
12519;SDS011;6325;49.540;8.364;2023-08-21T00:35:25;3.40;;;3.20;;
12519;SDS011;6325;49.540;8.364;2023-08-21T00:37:52;3.75;;;3.55;;
12519;SDS011;6325;49.540;8.364;2023-08-21T00:40:19;3.40;;;3.20;;
12519;SDS011;6325;49.540;8.364;2023-08-21T00:42:46;3.67;;;3.38;;
12519;SDS011;6325;49.540;8.364;2023-08-21T00:45:14;3.40;;;3.20;;
12519;SDS011;6325;49.540;8.364;2023-08-21T00:47:41;3.47;;;3.28;;
12519;SDS011;6325;49.540;8.364;2023-08-21T00:50:09;3.45;;;3.25;;
12519;SDS011;6325;49.540;8.364;2023-08-21T00:52:38;3.40;;;3.20;;
12519;SDS011;6325;49.540;8.364;2023-08-21T00:55:07;3.60;;;3.40;;
12519;SDS011;6325;49.540;8.364;2023-08-21T00:57:34;3.65;;;3.47;;
12519;SDS011;6325;49.540;8.364;2023-08-21T01:00:02;3.90;;;3.60;;
12519;SDS011;6325;49.540;8.364;2023-08-21T01:02:29;3.75;;;3.55;;
12519;SDS011;6325;49.540;8.364;2023-08-21T01:04:56;3.40;;;3.20;;
12519;SDS011;6325;49.540;8.364;2023-08-21T01:07:24;4.10;;;3.80;;
12519;SDS011;6325;49.540;8.364;2023-08-21T01:09:54;3.53;;;3.33;;
12519;SDS011;6325;49.540;8.364;2023-08-21T01:12:28;3.85;;;3.65;;
12519;SDS011;6325;49.540;8.364;2023-08-21T01:14:58;3.63;;;3.42;;
12519;SDS011;6325;49.540;8.364;2023-08-21T01:17:26;3.88;;;3.67;;
12519;SDS011;6325;49.540;8.364;2023-08-21T01:19:55;4.10;;;3.80;;
12519;SDS011;6325;49.540;8.364;2023-08-21T01:22:25;4.07;;;3.88;;
12519;SDS011;6325;49.540;8.364;2023-08-21T01:24:53;3.83;;;3.63;;
12519;SDS011;6325;49.540;8.364;2023-08-21T01:27:21;4.17;;;3.87;;
12519;SDS011;6325;49.540;8.364;2023-08-21T01:29:48;3.90;;;3.67;;
12519;SDS011;6325;49.540;8.364;2023-08-21T01:32:18;3.42;;;3.22;;
12519;SDS011;6325;49.540;8.364;2023-08-21T01:34:46;3.95;;;3.72;;
12519;SDS011;6325;49.540;8.364;2023-08-21T01:37:14;4.20;;;3.90;;
12519;SDS011;6325;49.540;8.364;2023-08-21T01:39:41;3.90;;;3.70;;
12519;SDS011;6325;49.540;8.364;2023-08-21T01:42:10;3.90;;;3.70;;
12519;SDS011;6325;49.540;8.364;2023-08-21T01:44:37;4.50;;;4.10;;
12519;SDS011;6325;49.540;8.364;2023-08-21T01:47:04;4.13;;;3.90;;
12519;SDS011;6325;49.540;8.364;2023-08-21T01:49:31;4.18;;;3.97;;
12519;SDS011;6325;49.540;8.364;2023-08-21T01:51:59;4.20;;;3.90;;
12519;SDS011;6325;49.540;8.364;2023-08-21T01:54:26;4.23;;;3.93;;
12519;SDS011;6325;49.540;8.364;2023-08-21T01:56:53;4.30;;;4.10;;
12519;SDS011;6325;49.540;8.364;2023-08-21T01:59:21;4.30;;;4.00;;
12519;SDS011;6325;49.540;8.364;2023-08-21T02:01:48;4.40;;;4.20;;
12519;SDS011;6325;49.540;8.364;2023-08-21T02:04:15;4.70;;;4.40;;
12519;SDS011;6325;49.540;8.364;2023-08-21T02:06:43;4.50;;;4.20;;
12519;SDS011;6325;49.540;8.364;2023-08-21T02:09:10;4.10;;;3.90;;
12519;SDS011;6325;49.540;8.364;2023-08-21T02:11:37;4.33;;;4.03;;
12519;SDS011;6325;49.540;8.364;2023-08-21T02:14:04;4.75;;;4.45;;
12519;SDS011;6325;49.540;8.364;2023-08-21T02:16:33;4.35;;;4.05;;
12519;SDS011;6325;49.540;8.364;2023-08-21T02:19:00;4.50;;;4.20;;
12519;SDS011;6325;49.540;8.364;2023-08-21T02:21:27;4.85;;;4.55;;
12519;SDS011;6325;49.540;8.364;2023-08-21T02:23:54;4.50;;;4.30;;
12519;SDS011;6325;49.540;8.364;2023-08-21T02:26:21;4.60;;;4.40;;
12519;SDS011;6325;49.540;8.364;2023-08-21T02:28:48;4.35;;;4.15;;
12519;SDS011;6325;49.540;8.364;2023-08-21T02:31:15;4.70;;;4.50;;
12519;SDS011;6325;49.540;8.364;2023-08-21T02:33:44;5.05;;;4.70;;
12519;SDS011;6325;49.540;8.364;2023-08-21T02:36:11;5.10;;;4.77;;
12519;SDS011;6325;49.540;8.364;2023-08-21T02:38:38;4.80;;;4.50;;
12519;SDS011;6325;49.540;8.364;2023-08-21T02:41:05;5.10;;;4.80;;
12519;SDS011;6325;49.540;8.364;2023-08-21T02:43:33;5.00;;;4.70;;
12519;SDS011;6325;49.540;8.364;2023-08-21T02:46:00;5.10;;;4.80;;
12519;SDS011;6325;49.540;8.364;2023-08-21T02:48:27;4.60;;;4.32;;
12519;SDS011;6325;49.540;8.364;2023-08-21T02:50:56;5.30;;;4.90;;
12519;SDS011;6325;49.540;8.364;2023-08-21T02:53:23;5.22;;;4.90;;
12519;SDS011;6325;49.540;8.364;2023-08-21T02:55:50;5.20;;;4.80;;
12519;SDS011;6325;49.540;8.364;2023-08-21T02:58:17;5.18;;;4.88;;
12519;SDS011;6325;49.540;8.364;2023-08-21T03:00:44;5.22;;;4.90;;
12519;SDS011;6325;49.540;8.364;2023-08-21T03:03:11;5.15;;;4.85;;
12519;SDS011;6325;49.540;8.364;2023-08-21T03:05:38;5.38;;;5.07;;
12519;SDS011;6325;49.540;8.364;2023-08-21T03:08:07;5.40;;;5.10;;
12519;SDS011;6325;49.540;8.364;2023-08-21T03:10:34;5.40;;;5.00;;
12519;SDS011;6325;49.540;8.364;2023-08-21T03:13:02;5.70;;;5.30;;
12519;SDS011;6325;49.540;8.364;2023-08-21T03:15:29;5.40;;;5.10;;
12519;SDS011;6325;49.540;8.364;2023-08-21T03:17:56;5.38;;;4.97;;
12519;SDS011;6325;49.540;8.364;2023-08-21T03:20:25;5.22;;;4.90;;
12519;SDS011;6325;49.540;8.364;2023-08-21T03:22:52;5.50;;;5.20;;
12519;SDS011;6325;49.540;8.364;2023-08-21T03:25:20;5.60;;;5.20;;
12519;SDS011;6325;49.540;8.364;2023-08-21T03:27:48;5.90;;;5.50;;
12519;SDS011;6325;49.540;8.364;2023-08-21T03:30:15;5.33;;;5.03;;
12519;SDS011;6325;49.540;8.364;2023-08-21T03:32:42;5.72;;;5.40;;
12519;SDS011;6325;49.540;8.364;2023-08-21T03:35:09;5.47;;;5.18;;
12519;SDS011;6325;49.540;8.364;2023-08-21T03:37:37;5.37;;;5.07;;
12519;SDS011;6325;49.540;8.364;2023-08-21T03:40:04;5.50;;;5.20;;
12519;SDS011;6325;49.540;8.364;2023-08-21T03:42:33;5.28;;;4.97;;
12519;SDS011;6325;49.540;8.364;2023-08-21T03:45:00;5.57;;;5.18;;
12519;SDS011;6325;49.540;8.364;2023-08-21T03:47:29;5.15;;;4.85;;
12519;SDS011;6325;49.540;8.364;2023-08-21T03:49:56;5.55;;;5.15;;
12519;SDS011;6325;49.540;8.364;2023-08-21T03:52:23;5.60;;;5.20;;
12519;SDS011;6325;49.540;8.364;2023-08-21T03:54:50;5.88;;;5.47;;
12519;SDS011;6325;49.540;8.364;2023-08-21T03:57:17;5.53;;;5.20;;
12519;SDS011;6325;49.540;8.364;2023-08-21T03:59:46;5.88;;;5.47;;
12519;SDS011;6325;49.540;8.364;2023-08-21T04:02:13;5.78;;;5.47;;
12519;SDS011;6325;49.540;8.364;2023-08-21T04:04:40;5.30;;;5.00;;
12519;SDS011;6325;49.540;8.364;2023-08-21T04:07:07;6.00;;;5.60;;
12519;SDS011;6325;49.540;8.364;2023-08-21T04:09:34;5.60;;;5.20;;
12519;SDS011;6325;49.540;8.364;2023-08-21T04:12:01;6.05;;;5.55;;
12519;SDS011;6325;49.540;8.364;2023-08-21T04:14:28;5.60;;;5.30;;
12519;SDS011;6325;49.540;8.364;2023-08-21T04:16:57;5.33;;;5.00;;
12519;SDS011;6325;49.540;8.364;2023-08-21T04:19:24;5.55;;;5.15;;
12519;SDS011;6325;49.540;8.364;2023-08-21T04:21:55;6.18;;;5.78;;
12519;SDS011;6325;49.540;8.364;2023-08-21T04:24:22;5.68;;;5.28;;
12519;SDS011;6325;49.540;8.364;2023-08-21T04:26:49;5.93;;;5.53;;
12519;SDS011;6325;49.540;8.364;2023-08-21T04:29:16;5.55;;;5.20;;
12519;SDS011;6325;49.540;8.364;2023-08-21T04:31:43;5.90;;;5.50;;
12519;SDS011;6325;49.540;8.364;2023-08-21T04:34:12;5.88;;;5.47;;
12519;SDS011;6325;49.540;8.364;2023-08-21T04:36:39;5.90;;;5.50;;
12519;SDS011;6325;49.540;8.364;2023-08-21T04:39:06;6.10;;;5.70;;
12519;SDS011;6325;49.540;8.364;2023-08-21T04:41:34;5.97;;;5.57;;
12519;SDS011;6325;49.540;8.364;2023-08-21T04:44:01;6.05;;;5.65;;
12519;SDS011;6325;49.540;8.364;2023-08-21T04:46:28;6.15;;;5.75;;
12519;SDS011;6325;49.540;8.364;2023-08-21T04:48:55;6.07;;;5.60;;
12519;SDS011;6325;49.540;8.364;2023-08-21T04:51:24;5.90;;;5.50;;
12519;SDS011;6325;49.540;8.364;2023-08-21T04:53:51;5.40;;;5.10;;
12519;SDS011;6325;49.540;8.364;2023-08-21T04:56:18;6.32;;;5.93;;
12519;SDS011;6325;49.540;8.364;2023-08-21T04:58:45;6.20;;;5.70;;
12519;SDS011;6325;49.540;8.364;2023-08-21T05:01:12;6.15;;;5.78;;
12519;SDS011;6325;49.540;8.364;2023-08-21T05:03:39;6.35;;;5.95;;
12519;SDS011;6325;49.540;8.364;2023-08-21T05:06:07;6.30;;;5.80;;
12519;SDS011;6325;49.540;8.364;2023-08-21T05:08:35;6.32;;;5.93;;
12519;SDS011;6325;49.540;8.364;2023-08-21T05:11:02;6.50;;;6.10;;
12519;SDS011;6325;49.540;8.364;2023-08-21T05:13:30;6.28;;;5.88;;
12519;SDS011;6325;49.540;8.364;2023-08-21T05:15:57;6.70;;;6.20;;
12519;SDS011;6325;49.540;8.364;2023-08-21T05:18:24;6.40;;;6.00;;
12519;SDS011;6325;49.540;8.364;2023-08-21T05:20:53;6.65;;;6.25;;
12519;SDS011;6325;49.540;8.364;2023-08-21T05:23:21;6.60;;;6.20;;
12519;SDS011;6325;49.540;8.364;2023-08-21T05:25:49;6.40;;;6.00;;
12519;SDS011;6325;49.540;8.364;2023-08-21T05:28:17;6.40;;;6.00;;
12519;SDS011;6325;49.540;8.364;2023-08-21T05:30:46;6.40;;;6.00;;
12519;SDS011;6325;49.540;8.364;2023-08-21T05:33:13;6.38;;;5.97;;
12519;SDS011;6325;49.540;8.364;2023-08-21T05:35:41;6.55;;;6.13;;
12519;SDS011;6325;49.540;8.364;2023-08-21T05:38:08;6.60;;;6.20;;
12519;SDS011;6325;49.540;8.364;2023-08-21T05:40:35;6.50;;;6.00;;
12519;SDS011;6325;49.540;8.364;2023-08-21T05:43:03;6.10;;;5.65;;
12519;SDS011;6325;49.540;8.364;2023-08-21T05:45:31;6.65;;;6.22;;
12519;SDS011;6325;49.540;8.364;2023-08-21T05:47:58;6.53;;;6.13;;
12519;SDS011;6325;49.540;8.364;2023-08-21T05:50:25;6.40;;;6.00;;
12519;SDS011;6325;49.540;8.364;2023-08-21T05:52:52;6.15;;;5.75;;
12519;SDS011;6325;49.540;8.364;2023-08-21T05:55:19;6.45;;;5.95;;
12519;SDS011;6325;49.540;8.364;2023-08-21T05:57:47;6.78;;;6.28;;
12519;SDS011;6325;49.540;8.364;2023-08-21T06:00:16;6.30;;;5.80;;
12519;SDS011;6325;49.540;8.364;2023-08-21T06:02:43;6.53;;;6.03;;
12519;SDS011;6325;49.540;8.364;2023-08-21T06:05:10;6.35;;;5.95;;
12519;SDS011;6325;49.540;8.364;2023-08-21T06:07:38;6.35;;;5.85;;
12519;SDS011;6325;49.540;8.364;2023-08-21T06:10:06;6.57;;;6.07;;
12519;SDS011;6325;49.540;8.364;2023-08-21T06:12:36;6.32;;;5.82;;
12519;SDS011;6325;49.540;8.364;2023-08-21T06:15:04;6.32;;;5.93;;
12519;SDS011;6325;49.540;8.364;2023-08-21T06:17:34;6.40;;;6.00;;
12519;SDS011;6325;49.540;8.364;2023-08-21T06:20:01;6.65;;;6.15;;
12519;SDS011;6325;49.540;8.364;2023-08-21T06:22:30;7.00;;;6.50;;
12519;SDS011;6325;49.540;8.364;2023-08-21T06:24:57;6.70;;;6.30;;
12519;SDS011;6325;49.540;8.364;2023-08-21T06:27:24;6.78;;;6.30;;
12519;SDS011;6325;49.540;8.364;2023-08-21T06:29:52;6.70;;;6.30;;
12519;SDS011;6325;49.540;8.364;2023-08-21T06:32:19;6.25;;;5.78;;
12519;SDS011;6325;49.540;8.364;2023-08-21T06:34:47;6.50;;;6.10;;
12519;SDS011;6325;49.540;8.364;2023-08-21T06:37:14;6.50;;;6.10;;
12519;SDS011;6325;49.540;8.364;2023-08-21T06:39:41;6.15;;;5.75;;
12519;SDS011;6325;49.540;8.364;2023-08-21T06:42:09;6.13;;;5.70;;
12519;SDS011;6325;49.540;8.364;2023-08-21T06:44:36;6.20;;;5.80;;
12519;SDS011;6325;49.540;8.364;2023-08-21T06:47:03;6.63;;;6.18;;
12519;SDS011;6325;49.540;8.364;2023-08-21T06:49:30;6.32;;;5.93;;
12519;SDS011;6325;49.540;8.364;2023-08-21T06:51:59;6.25;;;5.85;;
12519;SDS011;6325;49.540;8.364;2023-08-21T06:54:26;6.72;;;6.25;;
12519;SDS011;6325;49.540;8.364;2023-08-21T06:56:53;6.10;;;5.70;;
12519;SDS011;6325;49.540;8.364;2023-08-21T06:59:20;6.97;;;6.47;;
12519;SDS011;6325;49.540;8.364;2023-08-21T07:01:48;6.18;;;5.78;;
12519;SDS011;6325;49.540;8.364;2023-08-21T07:04:15;6.30;;;5.90;;
12519;SDS011;6325;49.540;8.364;2023-08-21T07:06:43;6.28;;;5.82;;
12519;SDS011;6325;49.540;8.364;2023-08-21T07:09:11;6.15;;;5.75;;
12519;SDS011;6325;49.540;8.364;2023-08-21T07:11:38;6.15;;;5.70;;
12519;SDS011;6325;49.540;8.364;2023-08-21T07:14:05;6.57;;;6.07;;
12519;SDS011;6325;49.540;8.364;2023-08-21T07:16:33;6.80;;;6.20;;
12519;SDS011;6325;49.540;8.364;2023-08-21T07:19:00;6.32;;;5.93;;
12519;SDS011;6325;49.540;8.364;2023-08-21T07:21:27;6.40;;;6.00;;
12519;SDS011;6325;49.540;8.364;2023-08-21T07:23:55;8.63;;;5.90;;
12519;SDS011;6325;49.540;8.364;2023-08-21T07:26:23;6.65;;;6.15;;
12519;SDS011;6325;49.540;8.364;2023-08-21T07:28:50;6.30;;;5.80;;
12519;SDS011;6325;49.540;8.364;2023-08-21T07:31:18;6.35;;;5.95;;
12519;SDS011;6325;49.540;8.364;2023-08-21T07:33:45;6.63;;;6.03;;
12519;SDS011;6325;49.540;8.364;2023-08-21T07:36:12;5.80;;;5.45;;
12519;SDS011;6325;49.540;8.364;2023-08-21T07:38:42;6.13;;;5.72;;
12519;SDS011;6325;49.540;8.364;2023-08-21T07:41:10;6.17;;;5.70;;
12519;SDS011;6325;49.540;8.364;2023-08-21T07:43:39;6.20;;;5.80;;
12519;SDS011;6325;49.540;8.364;2023-08-21T07:46:07;6.20;;;5.80;;
12519;SDS011;6325;49.540;8.364;2023-08-21T07:48:34;5.90;;;5.50;;
12519;SDS011;6325;49.540;8.364;2023-08-21T07:51:02;6.00;;;5.60;;
12519;SDS011;6325;49.540;8.364;2023-08-21T07:53:29;5.95;;;5.55;;
12519;SDS011;6325;49.540;8.364;2023-08-21T07:55:57;6.30;;;5.80;;
12519;SDS011;6325;49.540;8.364;2023-08-21T07:58:25;6.13;;;5.63;;
12519;SDS011;6325;49.540;8.364;2023-08-21T08:00:54;6.22;;;5.80;;
12519;SDS011;6325;49.540;8.364;2023-08-21T08:03:21;5.97;;;5.60;;
12519;SDS011;6325;49.540;8.364;2023-08-21T08:05:48;6.10;;;5.70;;
12519;SDS011;6325;49.540;8.364;2023-08-21T08:08:16;6.50;;;6.00;;
12519;SDS011;6325;49.540;8.364;2023-08-21T08:10:43;6.05;;;5.65;;
12519;SDS011;6325;49.540;8.364;2023-08-21T08:13:10;5.80;;;5.40;;
12519;SDS011;6325;49.540;8.364;2023-08-21T08:15:38;6.30;;;5.82;;
12519;SDS011;6325;49.540;8.364;2023-08-21T08:18:10;5.90;;;5.50;;
12519;SDS011;6325;49.540;8.364;2023-08-21T08:20:37;5.68;;;5.28;;
12519;SDS011;6325;49.540;8.364;2023-08-21T08:23:04;6.15;;;5.75;;
12519;SDS011;6325;49.540;8.364;2023-08-21T08:25:31;6.32;;;5.82;;
12519;SDS011;6325;49.540;8.364;2023-08-21T08:27:59;6.20;;;5.78;;
12519;SDS011;6325;49.540;8.364;2023-08-21T08:30:26;6.03;;;5.63;;
12519;SDS011;6325;49.540;8.364;2023-08-21T08:32:53;5.70;;;5.20;;
12519;SDS011;6325;49.540;8.364;2023-08-21T08:35:22;6.38;;;5.85;;
12519;SDS011;6325;49.540;8.364;2023-08-21T08:37:49;6.10;;;5.70;;
12519;SDS011;6325;49.540;8.364;2023-08-21T08:40:16;6.00;;;5.60;;
12519;SDS011;6325;49.540;8.364;2023-08-21T08:42:43;6.40;;;5.90;;
12519;SDS011;6325;49.540;8.364;2023-08-21T08:45:12;5.80;;;5.40;;
12519;SDS011;6325;49.540;8.364;2023-08-21T08:47:40;5.47;;;5.18;;
12519;SDS011;6325;49.540;8.364;2023-08-21T08:50:07;5.32;;;5.03;;
12519;SDS011;6325;49.540;8.364;2023-08-21T08:52:37;5.60;;;5.20;;
12519;SDS011;6325;49.540;8.364;2023-08-21T08:55:05;5.25;;;4.95;;
12519;SDS011;6325;49.540;8.364;2023-08-21T08:57:32;5.43;;;5.03;;
12519;SDS011;6325;49.540;8.364;2023-08-21T09:00:00;5.80;;;5.40;;
12519;SDS011;6325;49.540;8.364;2023-08-21T09:02:28;5.53;;;5.22;;
12519;SDS011;6325;49.540;8.364;2023-08-21T09:04:55;4.60;;;4.32;;
12519;SDS011;6325;49.540;8.364;2023-08-21T09:07:22;5.30;;;4.80;;
12519;SDS011;6325;49.540;8.364;2023-08-21T09:09:51;5.10;;;4.80;;
12519;SDS011;6325;49.540;8.364;2023-08-21T09:12:18;4.80;;;4.50;;
12519;SDS011;6325;49.540;8.364;2023-08-21T09:14:46;5.00;;;4.70;;
12519;SDS011;6325;49.540;8.364;2023-08-21T09:17:13;5.13;;;4.80;;
12519;SDS011;6325;49.540;8.364;2023-08-21T09:19:41;4.80;;;4.50;;
12519;SDS011;6325;49.540;8.364;2023-08-21T09:22:08;4.60;;;4.40;;
12519;SDS011;6325;49.540;8.364;2023-08-21T09:24:36;4.78;;;4.47;;
12519;SDS011;6325;49.540;8.364;2023-08-21T09:27:10;4.47;;;3.97;;
12519;SDS011;6325;49.540;8.364;2023-08-21T09:29:39;4.93;;;4.63;;
12519;SDS011;6325;49.540;8.364;2023-08-21T09:32:06;4.93;;;4.53;;
12519;SDS011;6325;49.540;8.364;2023-08-21T09:34:34;4.72;;;4.40;;
12519;SDS011;6325;49.540;8.364;2023-08-21T09:37:04;5.10;;;4.70;;
12519;SDS011;6325;49.540;8.364;2023-08-21T09:39:32;5.00;;;4.70;;
12519;SDS011;6325;49.540;8.364;2023-08-21T09:41:59;4.93;;;4.63;;
12519;SDS011;6325;49.540;8.364;2023-08-21T09:44:28;5.28;;;4.88;;
12519;SDS011;6325;49.540;8.364;2023-08-21T09:46:55;4.80;;;4.50;;
12519;SDS011;6325;49.540;8.364;2023-08-21T09:49:22;5.10;;;4.80;;
12519;SDS011;6325;49.540;8.364;2023-08-21T09:51:50;4.97;;;4.60;;
12519;SDS011;6325;49.540;8.364;2023-08-21T09:54:17;5.27;;;4.87;;
12519;SDS011;6325;49.540;8.364;2023-08-21T09:56:45;4.70;;;4.30;;
12519;SDS011;6325;49.540;8.364;2023-08-21T09:59:13;4.05;;;3.83;;
12519;SDS011;6325;49.540;8.364;2023-08-21T10:01:42;4.60;;;4.20;;
12519;SDS011;6325;49.540;8.364;2023-08-21T10:04:10;4.70;;;4.40;;
12519;SDS011;6325;49.540;8.364;2023-08-21T10:06:38;4.72;;;4.32;;
12519;SDS011;6325;49.540;8.364;2023-08-21T10:09:05;4.35;;;4.05;;
12519;SDS011;6325;49.540;8.364;2023-08-21T10:11:33;4.40;;;4.10;;
12519;SDS011;6325;49.540;8.364;2023-08-21T10:14:00;3.67;;;3.47;;
12519;SDS011;6325;49.540;8.364;2023-08-21T10:16:28;4.00;;;3.70;;
12519;SDS011;6325;49.540;8.364;2023-08-21T10:18:57;3.35;;;3.10;;
12519;SDS011;6325;49.540;8.364;2023-08-21T10:21:31;3.50;;;3.30;;
12519;SDS011;6325;49.540;8.364;2023-08-21T10:24:01;3.70;;;3.50;;
12519;SDS011;6325;49.540;8.364;2023-08-21T10:26:28;3.70;;;3.45;;
12519;SDS011;6325;49.540;8.364;2023-08-21T10:28:56;3.53;;;3.33;;
12519;SDS011;6325;49.540;8.364;2023-08-21T10:31:31;3.73;;;3.47;;
12519;SDS011;6325;49.540;8.364;2023-08-21T10:34:01;3.73;;;3.53;;
12519;SDS011;6325;49.540;8.364;2023-08-21T10:39:29;3.78;;;3.58;;
12519;SDS011;6325;49.540;8.364;2023-08-21T10:41:59;3.90;;;3.60;;
12519;SDS011;6325;49.540;8.364;2023-08-21T10:44:34;3.60;;;3.40;;
12519;SDS011;6325;49.540;8.364;2023-08-21T10:47:14;3.53;;;3.30;;
12519;SDS011;6325;49.540;8.364;2023-08-21T10:49:43;3.55;;;3.25;;
12519;SDS011;6325;49.540;8.364;2023-08-21T10:52:10;3.50;;;3.20;;
12519;SDS011;6325;49.540;8.364;2023-08-21T10:54:44;3.40;;;3.20;;
12519;SDS011;6325;49.540;8.364;2023-08-21T10:57:11;3.22;;;3.03;;
12519;SDS011;6325;49.540;8.364;2023-08-21T10:59:38;3.00;;;2.80;;
12519;SDS011;6325;49.540;8.364;2023-08-21T11:02:05;3.00;;;2.80;;
12519;SDS011;6325;49.540;8.364;2023-08-21T11:04:39;2.70;;;2.60;;
12519;SDS011;6325;49.540;8.364;2023-08-21T11:07:10;2.97;;;2.78;;
12519;SDS011;6325;49.540;8.364;2023-08-21T11:09:38;2.80;;;2.70;;
12519;SDS011;6325;49.540;8.364;2023-08-21T11:12:06;1.90;;;1.80;;
12519;SDS011;6325;49.540;8.364;2023-08-21T11:14:33;2.40;;;2.30;;
12519;SDS011;6325;49.540;8.364;2023-08-21T11:17:01;2.65;;;2.55;;
12519;SDS011;6325;49.540;8.364;2023-08-21T11:19:30;2.60;;;2.50;;
12519;SDS011;6325;49.540;8.364;2023-08-21T11:21:57;2.33;;;2.22;;
12519;SDS011;6325;49.540;8.364;2023-08-21T11:24:31;2.53;;;2.35;;
12519;SDS011;6325;49.540;8.364;2023-08-21T11:27:05;2.57;;;2.47;;
12519;SDS011;6325;49.540;8.364;2023-08-21T11:29:32;2.85;;;2.65;;
12519;SDS011;6325;49.540;8.364;2023-08-21T11:32:03;2.60;;;2.40;;
12519;SDS011;6325;49.540;8.364;2023-08-21T11:34:32;3.10;;;2.83;;
12519;SDS011;6325;49.540;8.364;2023-08-21T11:36:59;3.00;;;2.80;;
12519;SDS011;6325;49.540;8.364;2023-08-21T11:39:26;2.95;;;2.75;;
12519;SDS011;6325;49.540;8.364;2023-08-21T11:41:56;2.60;;;2.50;;
12519;SDS011;6325;49.540;8.364;2023-08-21T11:44:24;2.70;;;2.50;;
12519;SDS011;6325;49.540;8.364;2023-08-21T11:46:51;2.47;;;2.38;;
12519;SDS011;6325;49.540;8.364;2023-08-21T11:49:19;2.40;;;2.30;;
12519;SDS011;6325;49.540;8.364;2023-08-21T11:51:47;2.70;;;2.50;;
12519;SDS011;6325;49.540;8.364;2023-08-21T11:54:16;2.20;;;2.10;;
12519;SDS011;6325;49.540;8.364;2023-08-21T11:56:46;2.47;;;2.35;;
12519;SDS011;6325;49.540;8.364;2023-08-21T11:59:22;2.70;;;2.50;;
12519;SDS011;6325;49.540;8.364;2023-08-21T12:01:49;2.40;;;2.30;;
12519;SDS011;6325;49.540;8.364;2023-08-21T12:04:17;2.15;;;2.05;;
12519;SDS011;6325;49.540;8.364;2023-08-21T12:06:44;2.40;;;2.30;;
12519;SDS011;6325;49.540;8.364;2023-08-21T12:09:12;2.43;;;2.23;;
12519;SDS011;6325;49.540;8.364;2023-08-21T12:11:39;2.47;;;2.30;;
12519;SDS011;6325;49.540;8.364;2023-08-21T12:14:07;2.30;;;2.10;;
12519;SDS011;6325;49.540;8.364;2023-08-21T12:16:35;2.40;;;2.30;;
12519;SDS011;6325;49.540;8.364;2023-08-21T12:19:02;2.70;;;2.33;;
12519;SDS011;6325;49.540;8.364;2023-08-21T12:21:32;2.30;;;2.20;;
12519;SDS011;6325;49.540;8.364;2023-08-21T12:24:02;2.60;;;2.40;;
12519;SDS011;6325;49.540;8.364;2023-08-21T12:26:30;2.42;;;2.28;;
12519;SDS011;6325;49.540;8.364;2023-08-21T12:28:57;2.33;;;2.20;;
12519;SDS011;6325;49.540;8.364;2023-08-21T12:31:24;2.20;;;2.10;;
12519;SDS011;6325;49.540;8.364;2023-08-21T12:33:53;2.10;;;2.00;;
12519;SDS011;6325;49.540;8.364;2023-08-21T12:36:20;2.13;;;1.97;;
12519;SDS011;6325;49.540;8.364;2023-08-21T12:38:47;2.23;;;2.13;;
12519;SDS011;6325;49.540;8.364;2023-08-21T12:41:14;2.28;;;2.17;;
12519;SDS011;6325;49.540;8.364;2023-08-21T12:43:41;2.10;;;2.00;;
12519;SDS011;6325;49.540;8.364;2023-08-21T12:46:08;2.17;;;2.07;;
12519;SDS011;6325;49.540;8.364;2023-08-21T12:48:36;2.10;;;2.00;;
12519;SDS011;6325;49.540;8.364;2023-08-21T12:51:04;2.87;;;2.10;;
12519;SDS011;6325;49.540;8.364;2023-08-21T12:53:32;2.10;;;2.00;;
12519;SDS011;6325;49.540;8.364;2023-08-21T12:56:00;2.03;;;1.92;;
12519;SDS011;6325;49.540;8.364;2023-08-21T12:58:28;2.30;;;2.10;;
12519;SDS011;6325;49.540;8.364;2023-08-21T13:00:55;2.10;;;2.00;;
12519;SDS011;6325;49.540;8.364;2023-08-21T13:03:23;2.28;;;2.17;;
12519;SDS011;6325;49.540;8.364;2023-08-21T13:05:51;2.10;;;2.00;;
12519;SDS011;6325;49.540;8.364;2023-08-21T13:08:19;2.05;;;1.95;;
12519;SDS011;6325;49.540;8.364;2023-08-21T13:10:47;2.10;;;2.00;;
12519;SDS011;6325;49.540;8.364;2023-08-21T13:13:14;2.05;;;1.95;;
12519;SDS011;6325;49.540;8.364;2023-08-21T13:15:41;2.00;;;1.90;;
12519;SDS011;6325;49.540;8.364;2023-08-21T13:18:09;2.40;;;2.20;;
12519;SDS011;6325;49.540;8.364;2023-08-21T13:20:37;2.05;;;1.95;;
12519;SDS011;6325;49.540;8.364;2023-08-21T13:23:04;1.80;;;1.70;;
12519;SDS011;6325;49.540;8.364;2023-08-21T13:25:33;2.33;;;2.13;;
12519;SDS011;6325;49.540;8.364;2023-08-21T13:28:01;3.20;;;1.90;;
12519;SDS011;6325;49.540;8.364;2023-08-21T13:30:29;1.80;;;1.70;;
12519;SDS011;6325;49.540;8.364;2023-08-21T13:32:57;1.90;;;1.80;;
12519;SDS011;6325;49.540;8.364;2023-08-21T13:35:25;1.80;;;1.70;;
12519;SDS011;6325;49.540;8.364;2023-08-21T13:37:52;2.00;;;1.90;;
12519;SDS011;6325;49.540;8.364;2023-08-21T13:40:19;1.90;;;1.80;;
12519;SDS011;6325;49.540;8.364;2023-08-21T13:42:47;1.98;;;1.88;;
12519;SDS011;6325;49.540;8.364;2023-08-21T13:45:15;1.90;;;1.80;;
12519;SDS011;6325;49.540;8.364;2023-08-21T13:47:43;1.83;;;1.73;;
12519;SDS011;6325;49.540;8.364;2023-08-21T13:50:11;1.70;;;1.70;;
12519;SDS011;6325;49.540;8.364;2023-08-21T13:52:39;1.92;;;1.80;;
12519;SDS011;6325;49.540;8.364;2023-08-21T13:55:07;1.92;;;1.83;;
12519;SDS011;6325;49.540;8.364;2023-08-21T13:57:35;2.08;;;1.98;;
12519;SDS011;6325;49.540;8.364;2023-08-21T14:00:04;1.65;;;1.55;;
12519;SDS011;6325;49.540;8.364;2023-08-21T14:02:32;1.77;;;1.70;;
12519;SDS011;6325;49.540;8.364;2023-08-21T14:04:59;1.60;;;1.60;;
12519;SDS011;6325;49.540;8.364;2023-08-21T14:07:27;1.80;;;1.70;;
12519;SDS011;6325;49.540;8.364;2023-08-21T14:09:55;1.60;;;1.60;;
12519;SDS011;6325;49.540;8.364;2023-08-21T14:12:22;1.67;;;1.57;;
12519;SDS011;6325;49.540;8.364;2023-08-21T14:14:49;1.80;;;1.70;;
12519;SDS011;6325;49.540;8.364;2023-08-21T14:17:18;2.10;;;1.90;;
12519;SDS011;6325;49.540;8.364;2023-08-21T14:19:45;1.80;;;1.70;;
12519;SDS011;6325;49.540;8.364;2023-08-21T14:22:12;1.90;;;1.80;;
12519;SDS011;6325;49.540;8.364;2023-08-21T14:24:39;1.85;;;1.75;;
12519;SDS011;6325;49.540;8.364;2023-08-21T14:27:06;1.90;;;1.80;;
12519;SDS011;6325;49.540;8.364;2023-08-21T14:29:33;1.70;;;1.70;;
12519;SDS011;6325;49.540;8.364;2023-08-21T14:32:00;1.88;;;1.70;;
12519;SDS011;6325;49.540;8.364;2023-08-21T14:34:29;1.65;;;1.60;;
12519;SDS011;6325;49.540;8.364;2023-08-21T14:36:56;1.70;;;1.70;;
12519;SDS011;6325;49.540;8.364;2023-08-21T14:39:24;1.77;;;1.67;;
12519;SDS011;6325;49.540;8.364;2023-08-21T14:41:54;1.80;;;1.70;;
12519;SDS011;6325;49.540;8.364;2023-08-21T14:44:22;2.10;;;1.90;;
12519;SDS011;6325;49.540;8.364;2023-08-21T14:46:49;2.05;;;1.83;;
12519;SDS011;6325;49.540;8.364;2023-08-21T14:49:16;1.83;;;1.63;;
12519;SDS011;6325;49.540;8.364;2023-08-21T14:51:45;1.80;;;1.70;;
12519;SDS011;6325;49.540;8.364;2023-08-21T14:54:12;2.53;;;1.83;;
12519;SDS011;6325;49.540;8.364;2023-08-21T14:56:39;1.75;;;1.60;;
12519;SDS011;6325;49.540;8.364;2023-08-21T14:59:06;2.00;;;1.90;;
12519;SDS011;6325;49.540;8.364;2023-08-21T15:01:35;1.70;;;1.60;;
12519;SDS011;6325;49.540;8.364;2023-08-21T15:04:03;1.70;;;1.60;;
12519;SDS011;6325;49.540;8.364;2023-08-21T15:06:30;1.90;;;1.70;;